CheckWX is a tool to help pilots better visualize weather data.  It is not intended as a substitute for an official pre-flight weather briefing.

07:55:32 UTC

2G9 METAR
Somerset County Airport
Somerset, Pennsylvania, USA
Current

21 mins ago

K2G9 210735Z AUTO 18004KT 10SM CLR M01/M02 A3022 RMK AO2
Observed
Nov-21 @ 07:35 UTC
Wind
  • 180° at 4 KTS
Visibility
10 SM
Flight Rules
VFR
Cloud Levels
  • Clear skies
Temperature
-1°C / 30°F
Dewpoint
-2°C / 28°F
Humidity
93%
Altimeter
30.22" Hg
Pressure
1023.42 hPa
Previous

41 mins ago

K2G9 210715Z AUTO 20003KT 10SM CLR M01/M02 A3022 RMK AO2
Observed
Nov-21 @ 07:15 UTC
Wind
  • 200° at 3 KTS
Visibility
10 SM
Flight Rules
VFR
Cloud Levels
  • Clear skies
Temperature
-1°C / 30°F
Dewpoint
-2°C / 28°F
Humidity
93%
Altimeter
30.22" Hg
Pressure
1023.42 hPa
Previous

1 hour ago

K2G9 210655Z AUTO 25004KT 7SM CLR M02/M03 A3022 RMK AO2
Observed
Nov-21 @ 06:55 UTC
Wind
  • 250° at 4 KTS
Visibility
7 SM
Flight Rules
VFR
Cloud Levels
  • Clear skies
Temperature
-2°C / 28°F
Dewpoint
-3°C / 27°F
Humidity
93%
Altimeter
30.22" Hg
Pressure
1023.42 hPa